createdAt,value
2024-02-12T00:00:45.142Z,5.90
2024-02-12T00:02:15.539Z,8.10
2024-02-12T00:03:23.033Z,5.40
2024-02-12T00:04:30.780Z,7.50
2024-02-12T00:05:39.200Z,5.70
2024-02-12T00:07:54.473Z,7.60
2024-02-12T00:09:01.343Z,8.90
2024-02-12T00:10:12.469Z,8.40
2024-02-12T00:11:19.999Z,4.60
2024-02-12T00:12:26.758Z,7.20
2024-02-12T00:13:35.530Z,5.70
2024-02-12T00:14:42.760Z,8.10
2024-02-12T00:15:51.102Z,6.10
2024-02-12T00:16:58.669Z,7.40
2024-02-12T00:18:07.883Z,9.10
2024-02-12T00:19:15.027Z,8.60
2024-02-12T00:20:22.162Z,6.70
2024-02-12T00:21:30.571Z,8.50
2024-02-12T00:22:38.396Z,6.50
2024-02-12T00:23:46.712Z,6.50
2024-02-12T00:24:53.746Z,8.60
2024-02-12T00:26:01.024Z,8.90
2024-02-12T00:27:09.407Z,6.00
2024-02-12T00:28:16.253Z,8.80
2024-02-12T00:29:24.375Z,9.20
2024-02-12T00:30:34.414Z,6.60
2024-02-12T00:31:41.139Z,6.70
2024-02-12T00:32:48.465Z,8.10
2024-02-12T00:33:56.257Z,6.90
2024-02-12T00:35:05.994Z,9.50
2024-02-12T00:36:14.795Z,9.90
2024-02-12T00:37:21.917Z,4.80
2024-02-12T00:38:29.489Z,6.90
2024-02-12T00:39:36.704Z,6.00
2024-02-12T00:40:43.361Z,9.10
2024-02-12T00:41:54.769Z,6.30
2024-02-12T00:43:01.872Z,8.20
2024-02-12T00:44:09.411Z,6.30
2024-02-12T00:45:19.578Z,7.20
2024-02-12T00:46:27.132Z,4.60
2024-02-12T00:47:36.116Z,4.20
2024-02-12T00:48:48.279Z,3.50
2024-02-12T00:49:55.910Z,6.80
2024-02-12T00:51:04.736Z,5.70
2024-02-12T00:52:12.449Z,6.10
2024-02-12T00:53:20.688Z,4.40
2024-02-12T00:54:31.186Z,6.10
2024-02-12T00:55:40.760Z,4.20
2024-02-12T00:56:48.822Z,3.50
2024-02-12T00:57:55.793Z,7.70
2024-02-12T00:59:04.661Z,5.50
2024-02-12T01:01:22.369Z,2.60
2024-02-12T01:02:31.632Z,3.20
2024-02-12T01:03:38.431Z,4.50
2024-02-12T01:04:45.606Z,4.00
2024-02-12T01:05:54.227Z,4.20
2024-02-12T01:07:00.959Z,3.80
2024-02-12T01:08:08.814Z,3.80
2024-02-12T01:09:15.750Z,2.50
2024-02-12T01:10:23.347Z,3.60
2024-02-12T01:11:30.603Z,2.30
2024-02-12T01:12:37.998Z,4.30
2024-02-12T01:13:45.422Z,3.30
2024-02-12T01:14:51.991Z,3.50
2024-02-12T01:15:59.038Z,4.00
2024-02-12T01:17:06.048Z,3.30
2024-02-12T01:18:13.463Z,2.50
2024-02-12T01:19:21.223Z,4.70
2024-02-12T01:20:27.897Z,4.10
2024-02-12T01:21:35.320Z,5.50
2024-02-12T01:22:42.229Z,5.50
2024-02-12T01:23:49.023Z,5.40
2024-02-12T01:24:56.165Z,3.20
2024-02-12T01:26:03.083Z,5.80
2024-02-12T01:27:13.706Z,3.60
2024-02-12T01:28:20.245Z,4.10
2024-02-12T01:29:29.204Z,2.40
2024-02-12T01:30:36.538Z,4.90
2024-02-12T01:31:43.007Z,5.00
2024-02-12T01:32:49.651Z,3.60
2024-02-12T01:33:56.887Z,5.60
2024-02-12T01:35:03.801Z,3.10
2024-02-12T01:36:12.683Z,5.10
2024-02-12T01:37:19.132Z,6.00
2024-02-12T01:38:25.484Z,4.10
2024-02-12T01:39:32.530Z,7.80
2024-02-12T01:40:39.104Z,4.70
2024-02-12T01:41:46.193Z,8.10
2024-02-12T01:42:55.154Z,5.50
2024-02-12T01:44:03.414Z,6.90
2024-02-12T01:45:16.759Z,6.40
2024-02-12T01:46:23.320Z,6.40
2024-02-12T01:47:35.104Z,7.50
2024-02-12T01:48:42.713Z,5.80
2024-02-12T01:49:51.043Z,5.70
2024-02-12T01:50:59.452Z,5.80
2024-02-12T01:52:07.241Z,5.40
2024-02-12T01:53:14.631Z,7.40
2024-02-12T01:54:22.692Z,6.80
2024-02-12T01:55:31.151Z,8.00
2024-02-12T01:56:39.452Z,7.30
2024-02-12T01:57:51.890Z,6.60
2024-02-12T01:59:02.038Z,5.50
2024-02-12T02:00:13.411Z,7.70
2024-02-12T02:01:20.493Z,5.90
2024-02-12T02:02:27.207Z,6.60
2024-02-12T02:03:34.764Z,9.40
2024-02-12T02:04:42.283Z,6.40
2024-02-12T02:05:49.044Z,6.40
2024-02-12T02:06:56.587Z,5.80
2024-02-12T02:08:03.551Z,7.80
2024-02-12T02:09:10.805Z,6.30
2024-02-12T02:10:17.283Z,6.60
2024-02-12T02:11:28.589Z,8.00
2024-02-12T02:12:35.904Z,9.20
2024-02-12T02:13:45.471Z,7.40
2024-02-12T02:14:52.520Z,8.80
2024-02-12T02:15:58.849Z,7.50
2024-02-12T02:17:06.638Z,4.40
2024-02-12T02:18:13.348Z,7.50
2024-02-12T02:19:20.992Z,4.50
2024-02-12T02:20:28.515Z,8.50
2024-02-12T02:21:35.261Z,8.10
2024-02-12T02:22:41.752Z,6.10
2024-02-12T02:23:48.509Z,6.10
2024-02-12T02:24:55.288Z,6.80
2024-02-12T02:26:02.017Z,7.50
2024-02-12T02:27:11.066Z,6.40
2024-02-12T02:28:17.464Z,5.00
2024-02-12T02:29:24.149Z,7.20
2024-02-12T02:30:30.435Z,3.90
2024-02-12T02:31:37.503Z,4.70
2024-02-12T02:32:44.788Z,4.80
2024-02-12T02:33:51.914Z,5.40
2024-02-12T02:34:59.328Z,6.90
2024-02-12T02:36:07.034Z,4.90
2024-02-12T02:37:18.970Z,5.30
2024-02-12T02:38:25.364Z,3.70
2024-02-12T02:39:32.220Z,5.00
2024-02-12T02:40:39.439Z,8.80
2024-02-12T02:41:47.530Z,7.00
2024-02-12T02:42:54.593Z,3.20
2024-02-12T02:44:01.071Z,3.80
2024-02-12T02:45:11.290Z,4.30
2024-02-12T02:46:28.238Z,5.50
2024-02-12T02:47:37.787Z,6.10
2024-02-12T02:48:44.933Z,4.90
2024-02-12T02:49:51.676Z,4.30
2024-02-12T02:50:58.863Z,4.60
2024-02-12T02:52:06.778Z,6.10
2024-02-12T02:53:13.484Z,4.50
2024-02-12T02:54:23.214Z,4.90
2024-02-12T02:55:30.186Z,3.90
2024-02-12T02:56:37.281Z,5.80
2024-02-12T02:57:45.858Z,6.30
2024-02-12T02:58:53.299Z,5.30
2024-02-12T03:00:00.741Z,5.20
2024-02-12T03:01:07.658Z,4.80
2024-02-12T03:02:15.508Z,5.20
2024-02-12T03:03:24.048Z,5.80
2024-02-12T03:04:34.799Z,6.60
2024-02-12T03:05:41.882Z,4.20
2024-02-12T03:06:50.114Z,2.90
2024-02-12T03:07:57.563Z,4.20
2024-02-12T03:09:05.079Z,4.10
2024-02-12T03:10:15.660Z,6.50
2024-02-12T03:11:28.513Z,5.40
2024-02-12T03:12:36.535Z,3.60
2024-02-12T03:13:45.597Z,4.80
2024-02-12T03:14:52.508Z,6.60
2024-02-12T03:15:59.480Z,5.30
2024-02-12T03:17:08.524Z,3.80
2024-02-12T03:18:21.264Z,4.70
2024-02-12T03:19:27.718Z,7.70
2024-02-12T03:20:34.796Z,6.00
2024-02-12T03:21:41.595Z,4.00
2024-02-12T03:22:48.117Z,2.30
2024-02-12T03:23:54.990Z,3.10
2024-02-12T03:25:02.072Z,3.50
2024-02-12T03:26:10.233Z,5.40
2024-02-12T03:27:16.814Z,4.50
2024-02-12T03:28:24.164Z,4.10
2024-02-12T03:29:33.006Z,4.10
2024-02-12T03:30:40.866Z,4.40
2024-02-12T03:31:47.620Z,4.00
2024-02-12T03:32:54.706Z,3.40
2024-02-12T03:34:02.769Z,5.00
2024-02-12T03:35:11.300Z,3.80
2024-02-12T03:36:18.249Z,3.30
2024-02-12T03:37:27.737Z,4.80
2024-02-12T03:38:34.428Z,3.50
2024-02-12T03:39:41.189Z,3.90
2024-02-12T03:40:47.907Z,3.80
2024-02-12T03:41:55.498Z,5.00
2024-02-12T03:43:06.407Z,5.80
2024-02-12T03:44:13.662Z,4.10
2024-02-12T03:45:22.138Z,4.60
2024-02-12T03:46:42.020Z,3.80
2024-02-12T03:47:49.919Z,5.60
2024-02-12T03:49:15.439Z,2.80
2024-02-12T03:50:41.961Z,5.10
2024-02-12T03:52:07.962Z,3.30
2024-02-12T03:53:40.073Z,4.10
2024-02-12T03:55:05.937Z,3.60
2024-02-12T03:56:31.184Z,2.50
2024-02-12T03:58:00.615Z,3.50
2024-02-12T03:59:25.919Z,3.40
2024-02-12T04:00:34.068Z,3.50
2024-02-12T04:01:42.980Z,4.50
2024-02-12T04:03:55.487Z,3.50
2024-02-12T04:05:02.964Z,4.30
2024-02-12T04:06:14.205Z,4.70
2024-02-12T04:07:26.394Z,3.30
2024-02-12T04:08:34.476Z,2.90
2024-02-12T04:09:44.046Z,3.50
2024-02-12T04:10:50.665Z,3.10
2024-02-12T04:11:57.348Z,5.50
2024-02-12T04:13:05.577Z,3.10
2024-02-12T04:14:13.997Z,2.90
2024-02-12T04:15:21.969Z,5.20
2024-02-12T04:16:29.828Z,2.50
2024-02-12T04:17:36.416Z,2.70
2024-02-12T04:18:44.786Z,3.40
2024-02-12T04:19:51.659Z,3.40
2024-02-12T04:21:01.192Z,3.20
2024-02-12T04:22:11.590Z,4.90
2024-02-12T04:23:20.786Z,4.70
2024-02-12T04:24:30.733Z,6.00
2024-02-12T04:25:38.811Z,2.80
2024-02-12T04:26:46.328Z,4.00
2024-02-12T04:27:56.529Z,2.70
2024-02-12T04:29:03.186Z,4.50
2024-02-12T04:30:14.072Z,6.00
2024-02-12T04:31:22.365Z,4.70
2024-02-12T04:32:29.406Z,4.20
2024-02-12T04:33:38.820Z,3.20
2024-02-12T04:34:45.910Z,9.10
2024-02-12T04:35:52.380Z,1.90
2024-02-12T04:36:58.824Z,2.80
2024-02-12T04:38:08.401Z,5.30
2024-02-12T04:39:17.948Z,4.10
2024-02-12T04:41:30.110Z,3.60
2024-02-12T04:42:36.549Z,3.00
2024-02-12T04:43:43.677Z,3.80
2024-02-12T04:44:49.973Z,4.70
2024-02-12T04:45:56.584Z,2.20
2024-02-12T04:47:06.500Z,3.10
2024-02-12T04:48:16.346Z,3.20
2024-02-12T04:49:23.808Z,2.60
2024-02-12T04:50:31.631Z,6.20
2024-02-12T04:51:38.550Z,3.70
2024-02-12T04:52:45.240Z,6.00
2024-02-12T04:53:53.930Z,3.50
2024-02-12T04:55:01.033Z,3.30
2024-02-12T04:56:09.625Z,5.80
2024-02-12T04:57:16.876Z,3.70
2024-02-12T04:58:24.599Z,3.30
2024-02-12T04:59:32.210Z,4.60
2024-02-12T05:00:40.284Z,3.30
2024-02-12T05:01:48.549Z,2.50
2024-02-12T05:02:56.239Z,2.90
2024-02-12T05:04:02.934Z,5.60
2024-02-12T05:05:13.345Z,4.10
2024-02-12T05:06:20.425Z,2.90
2024-02-12T05:07:29.190Z,4.40
2024-02-12T05:08:36.534Z,4.50
2024-02-12T05:09:45.023Z,7.50
2024-02-12T05:10:53.040Z,7.30
2024-02-12T05:11:59.694Z,5.90
2024-02-12T05:13:07.669Z,4.60
2024-02-12T05:14:14.685Z,2.90
2024-02-12T05:15:21.228Z,5.00
2024-02-12T05:16:31.938Z,5.80
2024-02-12T05:18:08.464Z,3.00
2024-02-12T05:19:34.126Z,4.80
2024-02-12T05:21:00.479Z,5.20
2024-02-12T05:22:25.884Z,6.40
2024-02-12T05:23:34.309Z,5.30
2024-02-12T05:24:41.335Z,7.50
2024-02-12T05:25:49.042Z,6.00
2024-02-12T05:26:59.498Z,7.50
2024-02-12T05:28:06.562Z,7.00
2024-02-12T05:29:13.228Z,5.50
2024-02-12T05:30:21.035Z,9.30
2024-02-12T05:31:28.778Z,6.60
2024-02-12T05:32:36.150Z,7.60
2024-02-12T05:33:42.949Z,5.00
2024-02-12T05:34:52.855Z,5.60
2024-02-12T05:36:01.440Z,4.90
2024-02-12T05:37:08.558Z,6.20
2024-02-12T05:38:15.312Z,5.40
2024-02-12T05:39:25.228Z,6.60
2024-02-12T05:40:32.640Z,6.70
2024-02-12T05:41:39.566Z,5.70
2024-02-12T05:42:46.099Z,6.60
2024-02-12T05:43:54.843Z,6.90
2024-02-12T05:45:02.000Z,6.70
2024-02-12T05:46:08.923Z,9.30
2024-02-12T05:47:16.044Z,6.70
2024-02-12T05:48:23.293Z,7.50
2024-02-12T05:49:34.694Z,10.40
2024-02-12T05:50:41.740Z,9.90
2024-02-12T05:51:49.934Z,6.00
2024-02-12T05:52:57.082Z,8.30
2024-02-12T05:54:04.449Z,10.60
2024-02-12T05:55:11.569Z,7.90
2024-02-12T05:56:18.200Z,8.90
2024-02-12T05:57:26.183Z,10.70
2024-02-12T05:58:33.814Z,11.70
2024-02-12T05:59:40.985Z,11.70
2024-02-12T06:00:48.841Z,10.20
2024-02-12T06:01:55.601Z,9.30
2024-02-12T06:03:03.222Z,8.10
2024-02-12T06:04:10.991Z,8.90
2024-02-12T06:05:18.087Z,11.60
2024-02-12T06:06:26.873Z,10.50
2024-02-12T06:07:34.994Z,9.60
2024-02-12T06:08:42.949Z,9.90
2024-02-12T06:09:50.194Z,9.90
2024-02-12T06:10:56.848Z,11.50
2024-02-12T06:12:06.060Z,8.20
2024-02-12T06:13:12.559Z,10.10
2024-02-12T06:14:19.523Z,11.10
2024-02-12T06:15:25.961Z,11.80
2024-02-12T06:16:32.780Z,10.40
2024-02-12T06:17:39.459Z,10.70
2024-02-12T06:18:48.095Z,12.20
2024-02-12T06:21:00.251Z,12.90
2024-02-12T06:22:07.344Z,11.70
2024-02-12T06:23:15.040Z,11.20
2024-02-12T06:24:23.167Z,13.70
2024-02-12T06:25:29.766Z,7.80
2024-02-12T06:26:37.202Z,9.60
2024-02-12T06:27:45.973Z,11.00
2024-02-12T06:28:52.646Z,9.80
2024-02-12T06:29:59.408Z,13.10
2024-02-12T06:31:07.191Z,12.50
2024-02-12T06:32:17.278Z,11.90
2024-02-12T06:33:23.962Z,10.60
2024-02-12T06:34:33.450Z,10.90
2024-02-12T06:35:39.807Z,11.20
2024-02-12T06:36:48.212Z,12.30
2024-02-12T06:37:54.678Z,11.10
2024-02-12T06:39:01.276Z,11.60
2024-02-12T06:40:14.237Z,12.50
2024-02-12T06:41:22.087Z,11.00
2024-02-12T06:42:30.322Z,10.20
2024-02-12T06:43:37.153Z,10.90
2024-02-12T06:44:44.258Z,12.30
2024-02-12T06:45:51.728Z,12.50
2024-02-12T06:46:58.332Z,19.20
2024-02-12T06:48:06.734Z,12.10
2024-02-12T06:49:14.751Z,13.30
2024-02-12T06:50:21.874Z,11.90
2024-02-12T06:51:28.532Z,13.60
2024-02-12T06:52:35.773Z,11.90
2024-02-12T06:53:46.230Z,12.60
2024-02-12T06:54:57.617Z,13.20
2024-02-12T06:56:06.995Z,14.40
2024-02-12T06:57:14.179Z,13.90
2024-02-12T06:58:21.828Z,10.20
2024-02-12T06:59:28.805Z,11.90
2024-02-12T07:00:36.619Z,12.30
2024-02-12T07:01:44.246Z,9.90
2024-02-12T07:02:51.104Z,16.60
2024-02-12T07:03:59.197Z,13.40
2024-02-12T07:05:06.746Z,12.70
2024-02-12T07:06:14.014Z,13.70
2024-02-12T07:07:22.534Z,14.20
2024-02-12T07:08:29.020Z,10.90
2024-02-12T07:09:37.645Z,14.50
2024-02-12T07:10:45.805Z,10.20
2024-02-12T07:11:53.321Z,11.80
2024-02-12T07:12:59.883Z,14.00
2024-02-12T07:14:06.689Z,14.40
2024-02-12T07:15:15.861Z,12.60
2024-02-12T07:16:26.183Z,14.30
2024-02-12T07:17:33.925Z,16.30
2024-02-12T07:18:42.879Z,12.40
2024-02-12T07:19:52.056Z,10.50
2024-02-12T07:20:58.649Z,11.90
2024-02-12T07:22:06.223Z,10.30
2024-02-12T07:23:13.096Z,9.10
2024-02-12T07:24:19.552Z,10.40
2024-02-12T07:25:27.640Z,13.00
2024-02-12T07:26:33.961Z,13.50
2024-02-12T07:27:41.032Z,13.90
2024-02-12T07:28:52.613Z,11.80
2024-02-12T07:30:01.325Z,8.80
2024-02-12T07:31:09.624Z,11.60
2024-02-12T07:32:19.179Z,13.10
2024-02-12T07:33:26.586Z,13.40
2024-02-12T07:34:33.780Z,11.30
2024-02-12T07:35:40.608Z,12.70
2024-02-12T07:36:47.642Z,13.60
2024-02-12T07:37:55.153Z,10.40
2024-02-12T07:39:01.981Z,10.20
2024-02-12T07:40:12.726Z,12.40
2024-02-12T07:41:20.156Z,10.00
2024-02-12T07:42:29.770Z,11.10
2024-02-12T07:43:37.491Z,11.60
2024-02-12T07:44:44.314Z,12.40
2024-02-12T07:45:53.959Z,10.60
2024-02-12T07:47:01.597Z,12.90
2024-02-12T07:48:10.570Z,9.50
2024-02-12T07:49:19.258Z,12.90
2024-02-12T07:50:25.910Z,15.90
2024-02-12T07:51:32.716Z,10.50
2024-02-12T07:52:39.719Z,13.20
2024-02-12T07:53:48.199Z,10.40
2024-02-12T07:56:00.258Z,10.10
2024-02-12T07:57:09.273Z,12.00
2024-02-12T07:58:15.889Z,12.00
2024-02-12T07:59:22.570Z,18.10
2024-02-12T08:00:30.844Z,11.20
2024-02-12T08:01:37.831Z,8.40
2024-02-12T08:02:45.105Z,13.30
2024-02-12T08:03:52.154Z,14.10
2024-02-12T08:05:01.543Z,14.70
2024-02-12T08:06:11.155Z,14.90
2024-02-12T08:07:17.776Z,13.70
2024-02-12T08:08:24.760Z,15.50
2024-02-12T08:09:31.602Z,15.90
2024-02-12T08:10:38.633Z,17.10
2024-02-12T08:11:46.368Z,16.20
2024-02-12T08:12:54.451Z,12.40
2024-02-12T08:14:01.112Z,14.10
2024-02-12T08:15:12.383Z,13.10
2024-02-12T08:16:23.130Z,10.00
2024-02-12T08:17:31.721Z,14.70
2024-02-12T08:18:39.050Z,16.10
2024-02-12T08:19:47.136Z,17.00
2024-02-12T08:20:55.626Z,16.60
2024-02-12T08:22:03.830Z,14.30
2024-02-12T08:23:10.890Z,13.20
2024-02-12T08:24:19.201Z,12.90
2024-02-12T08:25:27.111Z,10.90
2024-02-12T08:26:34.490Z,14.60
2024-02-12T08:27:41.847Z,20.10
2024-02-12T08:28:49.542Z,16.60
2024-02-12T08:29:56.384Z,16.90
2024-02-12T08:31:03.940Z,14.10
2024-02-12T08:32:13.197Z,14.40
2024-02-12T08:33:20.024Z,14.40
2024-02-12T08:34:26.959Z,13.50
2024-02-12T08:35:34.092Z,14.00
2024-02-12T08:36:46.124Z,15.40
2024-02-12T08:37:53.119Z,15.80
2024-02-12T08:38:59.999Z,14.50
2024-02-12T08:40:14.611Z,18.10
2024-02-12T08:41:26.574Z,12.40
2024-02-12T08:42:34.534Z,19.20
2024-02-12T08:43:43.806Z,16.10
2024-02-12T08:44:52.836Z,17.20
2024-02-12T08:46:02.449Z,14.30
2024-02-12T08:47:10.672Z,12.70
2024-02-12T08:48:21.918Z,11.40
2024-02-12T08:49:29.759Z,16.40
2024-02-12T08:50:38.905Z,16.70
2024-02-12T08:51:49.725Z,16.20
2024-02-12T08:52:56.992Z,12.30
2024-02-12T08:54:03.490Z,13.90
2024-02-12T08:55:14.786Z,14.00
2024-02-12T08:56:22.032Z,14.00
2024-02-12T08:57:30.798Z,11.50
2024-02-12T08:58:39.538Z,11.00
2024-02-12T08:59:47.063Z,10.40
2024-02-12T09:00:54.965Z,16.10
2024-02-12T09:02:02.562Z,12.70
2024-02-12T09:03:09.451Z,14.00
2024-02-12T09:04:17.085Z,13.10
2024-02-12T09:05:24.223Z,11.90
2024-02-12T09:06:31.191Z,16.10
2024-02-12T09:07:37.880Z,18.90
2024-02-12T09:08:47.301Z,20.80
2024-02-12T09:09:55.440Z,20.20
2024-02-12T09:11:02.295Z,20.30
2024-02-12T09:12:12.452Z,19.60
2024-02-12T09:13:19.125Z,19.30
2024-02-12T09:14:26.406Z,17.60
2024-02-12T09:15:33.701Z,18.20
2024-02-12T09:16:41.972Z,18.30
2024-02-12T09:17:48.974Z,18.30
2024-02-12T09:18:58.662Z,21.90
2024-02-12T09:20:08.312Z,23.10
2024-02-12T09:21:14.992Z,27.30
2024-02-12T09:22:21.837Z,21.90
2024-02-12T09:23:29.400Z,23.20
2024-02-12T09:24:40.001Z,24.20
2024-02-12T09:25:47.783Z,19.80
2024-02-12T09:26:54.736Z,22.40
2024-02-12T09:28:01.153Z,18.50
2024-02-12T09:29:09.131Z,22.00
2024-02-12T09:30:19.756Z,20.30
2024-02-12T09:31:28.900Z,22.00
2024-02-12T09:32:35.778Z,22.20
2024-02-12T09:33:42.426Z,25.20
2024-02-12T09:34:48.800Z,21.60
2024-02-12T09:35:55.752Z,21.50
2024-02-12T09:37:02.808Z,21.60
2024-02-12T09:38:09.893Z,20.60
2024-02-12T09:39:18.781Z,20.20
2024-02-12T09:40:27.540Z,19.00
2024-02-12T09:41:39.089Z,17.20
2024-02-12T09:42:49.051Z,17.00
2024-02-12T09:43:57.520Z,17.10
2024-02-12T09:45:12.989Z,17.00
2024-02-12T09:46:20.699Z,19.50
2024-02-12T09:47:28.594Z,19.40
2024-02-12T09:48:36.677Z,18.90
2024-02-12T09:49:45.583Z,21.10
2024-02-12T09:50:53.936Z,19.20
2024-02-12T09:52:02.846Z,19.80
2024-02-12T09:53:14.464Z,17.90
2024-02-12T09:54:23.344Z,21.30
2024-02-12T09:55:33.199Z,18.40
2024-02-12T09:56:40.368Z,17.60
2024-02-12T09:57:47.174Z,17.20
2024-02-12T09:58:53.860Z,17.40
2024-02-12T10:00:00.862Z,16.80
2024-02-12T10:01:09.268Z,16.90
2024-02-12T10:02:16.508Z,18.60
2024-02-12T10:03:23.611Z,18.50
2024-02-12T10:04:31.084Z,16.40
2024-02-12T10:05:42.488Z,15.90
2024-02-12T10:06:59.006Z,16.10
2024-02-12T10:08:18.833Z,13.50
2024-02-12T10:09:26.367Z,17.20
2024-02-12T10:10:37.175Z,18.90
2024-02-12T10:11:44.444Z,18.30
2024-02-12T10:12:57.057Z,29.20
2024-02-12T10:14:06.168Z,21.20
2024-02-12T10:15:15.425Z,16.50
2024-02-12T10:16:27.046Z,13.30
2024-02-12T10:17:34.618Z,11.80
2024-02-12T10:18:44.947Z,18.30
2024-02-12T10:19:51.414Z,17.30
2024-02-12T10:20:58.203Z,15.20
2024-02-12T10:22:05.215Z,18.50
2024-02-12T10:23:21.926Z,15.40
2024-02-12T10:24:28.682Z,17.10
2024-02-12T10:25:40.816Z,16.20
2024-02-12T10:26:50.649Z,16.60
2024-02-12T10:27:57.540Z,14.10
2024-02-12T10:29:06.117Z,17.20
2024-02-12T10:30:19.661Z,14.70
2024-02-12T10:31:30.282Z,17.00
2024-02-12T10:32:39.982Z,16.10
2024-02-12T10:33:47.555Z,14.30
2024-02-12T10:34:59.350Z,15.50
2024-02-12T10:36:11.161Z,15.50
2024-02-12T10:37:22.867Z,15.70
2024-02-12T10:38:37.410Z,15.70
2024-02-12T10:39:46.866Z,15.20
2024-02-12T10:41:11.283Z,15.40
2024-02-12T10:42:25.067Z,11.20
2024-02-12T10:43:35.999Z,12.70
2024-02-12T10:44:45.772Z,15.10
2024-02-12T10:45:53.445Z,15.00
2024-02-12T10:47:00.438Z,15.80
2024-02-12T10:48:12.324Z,13.80
2024-02-12T10:49:20.478Z,13.70
2024-02-12T10:50:29.818Z,14.30
2024-02-12T10:51:40.616Z,14.00
2024-02-12T10:52:50.393Z,14.20
2024-02-12T10:54:00.678Z,12.50
2024-02-12T10:55:11.296Z,10.40
2024-02-12T10:56:18.044Z,11.60
2024-02-12T10:57:25.951Z,9.80
2024-02-12T10:58:34.230Z,11.10
2024-02-12T10:59:41.081Z,8.10
2024-02-12T11:01:04.021Z,9.80
2024-02-12T11:02:15.058Z,10.10
2024-02-12T11:03:34.779Z,10.70
2024-02-12T11:04:41.724Z,13.40
2024-02-12T11:05:52.285Z,7.80
2024-02-12T11:07:14.919Z,9.60
2024-02-12T11:08:25.043Z,8.10
2024-02-12T11:09:35.242Z,10.30
2024-02-12T11:10:45.184Z,10.80
2024-02-12T11:11:51.769Z,11.60
2024-02-12T11:13:06.549Z,10.00
2024-02-12T11:14:17.772Z,11.30
2024-02-12T11:15:29.401Z,9.00
2024-02-12T11:16:40.488Z,13.70
2024-02-12T11:17:49.918Z,11.50
2024-02-12T11:19:03.667Z,12.50
2024-02-12T11:20:19.540Z,11.70
2024-02-12T11:21:28.639Z,11.00
2024-02-12T11:22:35.820Z,11.20
2024-02-12T11:23:43.532Z,10.20
2024-02-12T11:24:52.234Z,8.30
2024-02-12T11:26:04.356Z,11.00
2024-02-12T11:27:11.305Z,12.70
2024-02-12T11:28:21.060Z,11.00
2024-02-12T11:29:27.887Z,11.00
2024-02-12T11:30:42.477Z,8.70
2024-02-12T11:31:50.179Z,12.90
2024-02-12T11:33:01.260Z,10.80
2024-02-12T11:34:20.804Z,10.90
2024-02-12T11:35:29.240Z,9.80
2024-02-12T11:36:37.797Z,9.30
2024-02-12T11:37:47.550Z,11.60
2024-02-12T11:38:55.573Z,9.90
2024-02-12T11:40:05.356Z,11.30
2024-02-12T11:41:13.943Z,8.80
2024-02-12T11:42:24.052Z,10.20
2024-02-12T11:43:33.417Z,12.30
2024-02-12T11:44:41.151Z,10.00
2024-02-12T11:45:47.714Z,10.60
2024-02-12T11:47:03.650Z,11.40
2024-02-12T11:48:12.390Z,12.40
2024-02-12T11:49:19.497Z,10.30
2024-02-12T11:50:29.112Z,11.20
2024-02-12T11:51:38.338Z,8.60
2024-02-12T11:52:44.696Z,10.20
2024-02-12T11:53:53.558Z,9.40
2024-02-12T11:55:08.591Z,11.10
2024-02-12T11:56:16.499Z,9.50
2024-02-12T11:57:25.931Z,11.10
2024-02-12T11:58:32.910Z,11.10
2024-02-12T11:59:40.730Z,10.20
2024-02-12T12:00:48.278Z,11.20
2024-02-12T12:01:54.809Z,9.20
2024-02-12T12:03:05.036Z,10.50
2024-02-12T12:04:13.690Z,13.50
2024-02-12T12:05:25.002Z,12.40
2024-02-12T12:06:35.374Z,10.80
2024-02-12T12:07:44.606Z,8.20
2024-02-12T12:08:53.092Z,10.50
2024-02-12T12:10:11.497Z,12.80
2024-02-12T12:11:22.689Z,10.00
2024-02-12T12:12:35.442Z,12.50
2024-02-12T12:13:43.511Z,10.80
2024-02-12T12:14:51.318Z,9.70
2024-02-12T12:15:59.606Z,11.30
2024-02-12T12:17:29.107Z,10.30
2024-02-12T12:18:36.302Z,9.60
2024-02-12T12:19:43.745Z,9.50
2024-02-12T12:20:55.012Z,11.80
2024-02-12T12:22:03.664Z,12.20
2024-02-12T12:23:11.449Z,11.50
2024-02-12T12:24:18.078Z,12.10
2024-02-12T12:25:25.434Z,10.20
2024-02-12T12:26:32.547Z,12.00
2024-02-12T12:27:39.986Z,12.30
2024-02-12T12:28:46.472Z,10.50
2024-02-12T12:29:58.847Z,11.80
2024-02-12T12:31:06.366Z,13.10
2024-02-12T12:32:15.444Z,10.40
2024-02-12T12:33:22.613Z,10.40
2024-02-12T12:34:31.107Z,10.70
2024-02-12T12:35:39.401Z,11.30
2024-02-12T12:36:46.273Z,12.60
2024-02-12T12:37:53.416Z,10.60
2024-02-12T12:39:00.216Z,8.70
2024-02-12T12:40:23.131Z,8.90
2024-02-12T12:41:31.773Z,8.50
2024-02-12T12:42:39.342Z,11.50
2024-02-12T12:43:45.847Z,10.20
2024-02-12T12:44:56.518Z,12.60
2024-02-12T12:46:03.985Z,10.40
2024-02-12T12:47:14.076Z,10.00
2024-02-12T12:48:23.888Z,9.80
2024-02-12T12:49:31.250Z,10.30
2024-02-12T12:50:39.802Z,10.00
2024-02-12T12:52:06.111Z,11.30
2024-02-12T12:53:13.093Z,11.10
2024-02-12T12:54:21.976Z,8.30
2024-02-12T12:55:28.619Z,8.30
2024-02-12T12:56:35.960Z,12.30
2024-02-12T12:57:45.807Z,9.60
2024-02-12T12:58:52.946Z,11.00
2024-02-12T13:00:01.081Z,10.90
2024-02-12T13:01:11.623Z,9.40
2024-02-12T13:02:21.777Z,8.20
2024-02-12T13:03:30.048Z,9.80
2024-02-12T13:04:42.223Z,8.30
2024-02-12T13:05:49.585Z,8.40
2024-02-12T13:06:56.408Z,9.40
2024-02-12T13:08:18.294Z,9.10
2024-02-12T13:09:29.620Z,11.10
2024-02-12T13:10:42.186Z,9.00
2024-02-12T13:11:54.061Z,9.00
2024-02-12T13:13:00.901Z,8.40
2024-02-12T13:14:08.947Z,10.90
2024-02-12T13:15:16.371Z,10.20
2024-02-12T13:16:23.193Z,9.90
2024-02-12T13:17:34.592Z,11.50
2024-02-12T13:18:42.117Z,9.10
2024-02-12T13:19:49.230Z,10.10
2024-02-12T13:20:58.473Z,10.30
2024-02-12T13:22:09.198Z,11.40
2024-02-12T13:23:16.377Z,11.00
2024-02-12T13:24:23.207Z,11.10
2024-02-12T13:25:36.146Z,10.10
2024-02-12T13:26:45.007Z,8.30
2024-02-12T13:27:51.493Z,10.20
2024-02-12T13:28:59.002Z,9.50
2024-02-12T13:30:07.621Z,11.20
2024-02-12T13:31:16.155Z,8.20
2024-02-12T13:32:24.223Z,11.60
2024-02-12T13:33:32.636Z,8.50
2024-02-12T13:34:42.350Z,8.60
2024-02-12T13:35:50.688Z,9.90
2024-02-12T13:36:57.800Z,9.40
2024-02-12T13:38:05.313Z,8.90
2024-02-12T13:39:15.474Z,8.70
2024-02-12T13:40:25.857Z,9.50
2024-02-12T13:41:37.107Z,9.10
2024-02-12T13:42:45.344Z,10.10
2024-02-12T13:43:53.227Z,10.80
2024-02-12T13:44:59.804Z,10.90
2024-02-12T13:46:08.204Z,9.50
2024-02-12T13:47:15.099Z,12.10
2024-02-12T13:48:23.370Z,10.80
2024-02-12T13:49:30.961Z,11.00
2024-02-12T13:50:37.682Z,10.00
2024-02-12T13:51:44.350Z,8.80
2024-02-12T13:52:51.797Z,11.30
2024-02-12T13:53:59.304Z,11.40
2024-02-12T13:55:14.778Z,8.90
2024-02-12T13:56:26.462Z,12.20
2024-02-12T13:57:36.308Z,10.50
2024-02-12T13:58:51.490Z,9.20
2024-02-12T14:01:23.907Z,10.10
2024-02-12T14:02:38.639Z,8.80
2024-02-12T14:03:46.665Z,9.60
2024-02-12T14:04:55.667Z,8.90
2024-02-12T14:06:02.351Z,9.00
2024-02-12T14:07:12.298Z,7.60
2024-02-12T14:08:20.723Z,7.10
2024-02-12T14:09:27.545Z,7.70
2024-02-12T14:10:34.701Z,6.30
2024-02-12T14:11:42.046Z,6.50
2024-02-12T14:12:49.778Z,9.30
2024-02-12T14:13:56.594Z,8.20
2024-02-12T14:15:09.146Z,7.10
2024-02-12T14:16:18.870Z,6.50
2024-02-12T14:17:25.719Z,7.40
2024-02-12T14:18:32.662Z,8.00
2024-02-12T14:19:45.426Z,10.20
2024-02-12T14:20:55.588Z,11.80
2024-02-12T14:22:02.215Z,9.20
2024-02-12T14:23:12.199Z,9.00
2024-02-12T14:24:19.757Z,6.00
2024-02-12T14:25:30.485Z,7.30
2024-02-12T14:26:37.370Z,7.80
2024-02-12T14:27:44.920Z,8.50
2024-02-12T14:28:52.401Z,7.90
2024-02-12T14:29:59.386Z,5.80
2024-02-12T14:31:07.138Z,8.90
2024-02-12T14:32:38.906Z,8.80
2024-02-12T14:33:42.314Z,7.40
2024-02-12T14:34:49.425Z,9.40
2024-02-12T14:35:56.207Z,6.30
2024-02-12T14:37:03.511Z,7.50
2024-02-12T14:38:11.784Z,7.30
2024-02-12T14:39:19.309Z,7.30
2024-02-12T14:40:27.080Z,11.00
2024-02-12T14:41:34.994Z,5.80
2024-02-12T14:42:45.288Z,6.70
2024-02-12T14:43:51.804Z,9.40
2024-02-12T14:44:58.780Z,6.40
2024-02-12T14:46:05.655Z,11.70
2024-02-12T14:47:12.185Z,7.10
2024-02-12T14:48:19.502Z,8.80
2024-02-12T14:49:35.132Z,10.10
2024-02-12T14:50:43.777Z,11.20
2024-02-12T14:51:51.623Z,12.50
2024-02-12T14:52:59.616Z,11.50
2024-02-12T14:54:10.011Z,9.10
2024-02-12T14:55:19.825Z,11.30
2024-02-12T14:56:27.955Z,10.80
2024-02-12T14:57:35.027Z,6.70
2024-02-12T14:58:41.630Z,9.30
2024-02-12T14:59:51.272Z,12.30
2024-02-12T15:00:57.779Z,8.00
2024-02-12T15:02:07.427Z,10.20
2024-02-12T15:03:15.064Z,9.90
2024-02-12T15:04:21.897Z,12.40
2024-02-12T15:05:30.863Z,9.50
2024-02-12T15:06:37.432Z,10.80
2024-02-12T15:07:46.046Z,9.00
2024-02-12T15:08:57.200Z,12.90
2024-02-12T15:10:04.572Z,13.10
2024-02-12T15:11:14.168Z,12.10